Time;durP1;ratioP1;P1;durP2;ratioP2;P2;SDS_P1;SDS_P2;PMS_P1;PMS_P2;Temp;Humidity;BMP_temperature;BMP_pressure;BME280_temperature;BME280_humidity;BME280_pressure;Samples;Min_cycle;Max_cycle;Signal;HPM_P1;HPM_P2
2022/09/28 00:00:54;;;;;;;2.35;1.35;;;18.70;99.90;;;;;;4134235;28;20229;-76
2022/09/28 00:02:57;;;;;;;3.53;1.48;;;18.60;99.90;;;;;;4145827;28;20252;-76
2022/09/28 00:05:01;;;;;;;4.60;1.50;;;18.60;99.90;;;;;;4138955;28;20213;-76
2022/09/28 00:07:03;;;;;;;3.40;1.45;;;18.60;99.90;;;;;;4146899;28;20619;-76
2022/09/28 00:09:06;;;;;;;2.17;1.42;;;18.60;99.90;;;;;;4144213;28;20236;-76
2022/09/28 00:11:12;;;;;;;3.42;1.80;;;18.60;99.90;;;;;;4137345;28;20214;-76
2022/09/28 00:13:15;;;;;;;2.95;1.40;;;18.60;99.90;;;;;;4145517;28;20267;-76
2022/09/28 00:15:17;;;;;;;3.45;1.50;;;18.70;99.90;;;;;;4143494;28;20233;-76
2022/09/28 00:17:21;;;;;;;2.53;1.27;;;18.60;99.90;;;;;;4139785;28;20225;-76
2022/09/28 00:19:23;;;;;;;2.85;1.52;;;18.60;99.90;;;;;;4145525;28;20320;-76
2022/09/28 00:21:29;;;;;;;2.22;1.40;;;18.60;99.90;;;;;;4142456;28;20711;-76
2022/09/28 00:23:33;;;;;;;2.28;1.52;;;18.60;99.90;;;;;;4132845;28;20345;-76
2022/09/28 00:25:36;;;;;;;3.20;1.48;;;18.60;99.90;;;;;;4141999;28;20271;-76
2022/09/28 00:27:39;;;;;;;2.33;1.48;;;18.60;99.90;;;;;;4130678;28;20264;-76
2022/09/28 00:29:41;;;;;;;1.85;1.27;;;18.60;99.90;;;;;;4137430;28;20217;-76
2022/09/28 00:31:43;;;;;;;2.05;1.50;;;18.60;99.90;;;;;;4143166;28;20666;-76
2022/09/28 00:33:49;;;;;;;3.17;1.60;;;18.60;99.90;;;;;;4143682;28;20287;-76
2022/09/28 00:35:56;;;;;;;2.22;1.20;;;18.60;99.90;;;;;;4140301;28;20677;-76
2022/09/28 00:38:01;;;;;;;2.20;1.27;;;18.50;99.90;;;;;;4141340;28;20213;-76
2022/09/28 00:40:03;;;;;;;3.13;1.45;;;18.60;99.90;;;;;;4137000;28;20756;-76
2022/09/28 00:42:12;;;;;;;2.28;1.15;;;18.60;99.90;;;;;;4145614;28;20275;-76
2022/09/28 00:44:47;;;;;;;2.50;1.25;;;18.60;99.90;;;;;;4138330;28;20217;-76
2022/09/28 00:46:53;;;;;;;2.70;1.30;;;18.60;99.90;;;;;;4131014;28;20216;-76
2022/09/28 00:49:01;;;;;;;2.83;1.48;;;18.60;99.90;;;;;;4140128;28;20292;-76
2022/09/28 00:51:08;;;;;;;2.58;1.45;;;18.60;99.90;;;;;;4139061;28;20372;-76
2022/09/28 00:53:18;;;;;;;2.67;1.20;;;18.60;99.90;;;;;;4144534;28;20279;-76
2022/09/28 00:55:26;;;;;;;3.38;1.50;;;18.60;99.90;;;;;;4143118;28;20267;-76
2022/09/28 00:57:30;;;;;;;3.67;1.50;;;18.60;99.90;;;;;;4144552;28;20275;-76
2022/09/28 00:59:33;;;;;;;2.00;1.20;;;18.60;99.90;;;;;;4145329;28;20267;-76
2022/09/28 01:01:37;;;;;;;3.15;1.30;;;18.60;99.90;;;;;;4142946;28;20212;-76
2022/09/28 01:03:44;;;;;;;2.40;1.25;;;18.60;99.90;;;;;;4143083;28;20225;-76
2022/09/28 01:05:48;;;;;;;2.72;1.60;;;18.60;99.90;;;;;;4143481;28;21036;-76
2022/09/28 01:07:51;;;;;;;2.33;1.20;;;18.60;99.90;;;;;;4141780;28;20666;-76
2022/09/28 01:09:55;;;;;;;3.25;1.20;;;18.50;99.90;;;;;;4142604;28;20271;-76
2022/09/28 01:11:57;;;;;;;1.45;1.13;;;18.50;99.90;;;;;;4143407;28;20666;-76
2022/09/28 01:14:01;;;;;;;2.63;1.40;;;18.50;99.90;;;;;;4141444;28;20624;-76
2022/09/28 01:16:12;;;;;;;2.05;1.40;;;18.60;99.90;;;;;;4143951;28;20344;-76
2022/09/28 01:18:22;;;;;;;2.13;1.45;;;18.50;99.90;;;;;;4143290;28;20221;-76
2022/09/28 01:20:33;;;;;;;2.85;1.60;;;18.60;99.90;;;;;;4141917;28;20274;-76
2022/09/28 01:22:58;;;;;;;1.85;1.30;;;18.50;99.90;;;;;;4143086;28;20232;-76
2022/09/28 01:25:09;;;;;;;2.38;1.30;;;18.50;99.90;;;;;;4132703;28;20287;-76
2022/09/28 01:27:20;;;;;;;2.40;1.42;;;18.50;99.90;;;;;;4143405;28;20216;-76
2022/09/28 01:29:32;;;;;;;2.42;1.20;;;18.50;99.90;;;;;;4143053;28;20297;-76
2022/09/28 01:31:38;;;;;;;2.22;1.48;;;18.50;99.90;;;;;;4140133;28;20654;-76
2022/09/28 01:33:44;;;;;;;2.63;1.38;;;18.50;99.90;;;;;;4143151;28;20229;-76
2022/09/28 01:35:53;;;;;;;2.97;1.40;;;18.50;99.90;;;;;;4142136;28;20217;-76
2022/09/28 01:38:04;;;;;;;1.88;1.30;;;18.50;99.90;;;;;;4143193;28;20216;-76
2022/09/28 01:40:08;;;;;;;2.13;1.25;;;18.50;99.90;;;;;;4143525;28;20623;-76
2022/09/28 01:42:15;;;;;;;2.17;1.40;;;18.50;99.90;;;;;;4141613;28;20279;-76
2022/09/28 01:44:21;;;;;;;1.80;1.20;;;18.50;99.90;;;;;;4143375;28;20713;-76
2022/09/28 01:46:27;;;;;;;3.10;1.60;;;18.50;99.90;;;;;;4143090;28;20220;-76
2022/09/28 01:48:35;;;;;;;2.13;1.30;;;18.50;99.90;;;;;;4141294;28;20225;-76
2022/09/28 01:50:40;;;;;;;1.20;1.10;;;18.50;99.90;;;;;;4142924;28;20248;-75
2022/09/28 01:52:49;;;;;;;1.95;1.30;;;18.50;99.90;;;;;;4142670;28;20225;-76
2022/09/28 01:54:55;;;;;;;1.95;1.00;;;18.50;99.90;;;;;;4142538;28;20271;-76
2022/09/28 01:57:02;;;;;;;1.90;1.23;;;18.50;99.90;;;;;;4143377;28;20221;-76
2022/09/28 01:59:12;;;;;;;2.22;1.30;;;18.50;99.90;;;;;;4141807;28;20267;-76
2022/09/28 02:01:19;;;;;;;2.17;1.23;;;18.50;99.90;;;;;;4143286;28;20220;-76
2022/09/28 02:03:29;;;;;;;1.33;1.10;;;18.50;99.90;;;;;;4142860;28;20217;-76
2022/09/28 02:05:35;;;;;;;2.13;1.30;;;18.50;99.90;;;;;;4141139;28;20287;-76
2022/09/28 02:07:41;;;;;;;2.58;1.40;;;18.50;99.90;;;;;;4143096;28;20264;-76
2022/09/28 02:09:48;;;;;;;2.03;1.10;;;18.50;99.90;;;;;;4142650;28;20245;-76
2022/09/28 02:11:59;;;;;;;2.63;1.40;;;18.50;99.90;;;;;;4140860;28;20312;-76
2022/09/28 02:14:05;;;;;;;1.77;1.40;;;18.40;99.90;;;;;;4143200;28;20319;-76
2022/09/28 02:16:14;;;;;;;3.50;1.20;;;18.50;99.90;;;;;;4142576;28;20221;-75
2022/09/28 02:18:18;;;;;;;1.80;1.23;;;18.50;99.90;;;;;;4142203;28;20267;-76
2022/09/28 02:20:21;;;;;;;2.55;1.52;;;18.40;99.90;;;;;;4143313;28;20628;-76
2022/09/28 02:22:28;;;;;;;2.95;1.17;;;18.40;99.90;;;;;;4144145;28;20217;-78
2022/09/28 02:24:37;;;;;;;1.00;0.90;;;18.50;99.90;;;;;;4145478;28;20228;-76
2022/09/28 02:26:44;;;;;;;1.15;1.00;;;18.50;99.90;;;;;;4146103;28;20224;-76
2022/09/28 02:28:46;;;;;;;1.10;1.00;;;18.50;99.90;;;;;;4143353;28;20268;-76
2022/09/28 02:30:48;;;;;;;2.05;1.38;;;18.50;99.90;;;;;;4145290;28;20811;-76
2022/09/28 02:32:55;;;;;;;2.08;1.15;;;18.40;99.90;;;;;;4145497;28;20247;-76
2022/09/28 02:34:59;;;;;;;1.88;1.05;;;18.50;99.90;;;;;;4143789;28;20221;-76
2022/09/28 02:37:02;;;;;;;2.13;1.35;;;18.50;99.90;;;;;;4138041;28;20260;-76
2022/09/28 02:39:05;;;;;;;1.90;1.20;;;18.50;99.90;;;;;;4136238;28;20224;-77
2022/09/28 02:41:26;;;;;;;2.05;1.20;;;18.50;99.90;;;;;;4143795;28;20718;-77
2022/09/28 02:43:38;;;;;;;1.65;1.20;;;18.40;99.90;;;;;;4140055;28;20222;-76
2022/09/28 02:46:00;;;;;;;1.65;1.20;;;18.40;99.90;;;;;;4132461;28;20295;-76
2022/09/28 02:48:17;;;;;;;1.55;1.30;;;18.40;99.90;;;;;;4145412;28;20263;-76
2022/09/28 02:50:32;;;;;;;1.83;1.23;;;18.40;99.90;;;;;;4145007;28;20289;-76
2022/09/28 02:52:52;;;;;;;1.35;1.13;;;18.40;99.90;;;;;;4144108;28;20237;-77
2022/09/28 02:55:11;;;;;;;3.35;1.27;;;18.40;99.90;;;;;;4136826;28;20291;-76
2022/09/28 02:57:27;;;;;;;2.30;1.10;;;18.40;99.90;;;;;;4142886;28;20217;-76
2022/09/28 02:59:41;;;;;;;1.98;1.30;;;18.40;99.90;;;;;;4142233;28;20222;-76
2022/09/28 03:01:51;;;;;;;1.77;1.20;;;18.40;99.90;;;;;;4140022;28;20324;-77
2022/09/28 03:03:57;;;;;;;2.10;1.20;;;18.40;99.90;;;;;;4141867;28;20329;-76
2022/09/28 03:06:07;;;;;;;1.63;1.02;;;18.40;99.90;;;;;;4145522;28;20217;-76
2022/09/28 03:08:20;;;;;;;1.77;1.15;;;18.40;99.90;;;;;;4129104;28;20269;-77
2022/09/28 03:10:30;;;;;;;2.10;1.10;;;18.40;99.90;;;;;;4143731;28;20701;-76
2022/09/28 03:12:34;;;;;;;2.42;1.30;;;18.40;99.90;;;;;;4144882;28;20279;-76
2022/09/28 03:14:37;;;;;;;1.48;1.00;;;18.40;99.90;;;;;;4143037;28;20209;-76
2022/09/28 03:16:43;;;;;;;1.33;1.05;;;18.30;99.90;;;;;;4144788;28;20646;-76
2022/09/28 03:18:46;;;;;;;3.20;1.33;;;18.40;99.90;;;;;;4145195;28;20696;-76
2022/09/28 03:20:48;;;;;;;1.00;0.90;;;18.40;99.90;;;;;;4142481;28;20209;-76
2022/09/28 03:22:52;;;;;;;1.90;1.10;;;18.40;99.90;;;;;;4144825;28;20224;-76
2022/09/28 03:24:54;;;;;;;1.45;1.10;;;18.30;99.90;;;;;;4144974;28;20229;-76
2022/09/28 03:26:57;;;;;;;1.60;1.02;;;18.30;99.90;;;;;;4143822;28;20235;-77
2022/09/28 03:28:59;;;;;;;2.08;1.35;;;18.40;99.90;;;;;;4144948;28;20224;-76
2022/09/28 03:31:01;;;;;;;1.20;1.08;;;18.40;99.90;;;;;;4143775;28;20685;-76
2022/09/28 03:33:05;;;;;;;2.95;1.40;;;18.30;99.90;;;;;;4143241;28;20499;-76
2022/09/28 03:35:09;;;;;;;1.70;1.17;;;18.40;99.90;;;;;;4144857;28;20221;-76
2022/09/28 03:37:12;;;;;;;2.30;1.20;;;18.40;99.90;;;;;;4142879;28;20225;-77
2022/09/28 03:39:16;;;;;;;1.40;1.00;;;18.30;99.90;;;;;;4144940;28;20225;-76
2022/09/28 03:41:18;;;;;;;1.88;1.10;;;18.30;99.90;;;;;;4143344;28;20237;-77
2022/09/28 03:43:20;;;;;;;2.10;1.25;;;18.30;99.90;;;;;;4143175;28;20269;-77
2022/09/28 03:45:23;;;;;;;1.50;1.10;;;18.30;99.90;;;;;;4144958;28;20221;-76
2022/09/28 03:47:25;;;;;;;2.10;1.17;;;18.40;99.90;;;;;;4145877;28;20267;-76
2022/09/28 03:49:27;;;;;;;1.95;1.13;;;18.40;99.90;;;;;;4143460;28;20221;-76
2022/09/28 03:51:30;;;;;;;1.48;1.20;;;18.30;99.90;;;;;;4142699;28;20759;-77
2022/09/28 03:53:33;;;;;;;1.83;1.10;;;18.30;99.90;;;;;;4136438;28;20218;-76
2022/09/28 03:55:37;;;;;;;2.53;1.30;;;18.30;99.90;;;;;;4138654;28;20225;-76
2022/09/28 03:57:39;;;;;;;2.17;1.17;;;18.30;99.90;;;;;;4142017;28;20213;-76
2022/09/28 03:59:41;;;;;;;0.90;0.82;;;18.30;99.90;;;;;;4141248;28;20222;-76
2022/09/28 04:01:44;;;;;;;1.77;1.02;;;18.30;99.90;;;;;;4141188;28;20228;-76
2022/09/28 04:03:46;;;;;;;1.42;0.93;;;18.30;99.90;;;;;;4144494;28;20220;-77
2022/09/28 04:05:50;;;;;;;1.60;1.10;;;18.30;99.90;;;;;;4143581;28;20220;-76
2022/09/28 04:07:56;;;;;;;1.48;0.80;;;18.30;99.90;;;;;;4143334;28;20229;-77
2022/09/28 04:09:58;;;;;;;2.30;1.10;;;18.30;99.90;;;;;;4136951;28;20237;-76
2022/09/28 04:12:02;;;;;;;1.38;1.00;;;18.30;99.90;;;;;;4141658;28;20217;-76
2022/09/28 04:14:05;;;;;;;1.33;1.10;;;18.30;99.90;;;;;;4144079;28;20609;-76
2022/09/28 04:16:07;;;;;;;2.65;1.40;;;18.30;99.90;;;;;;4139330;28;20280;-76
2022/09/28 04:18:11;;;;;;;1.27;0.82;;;18.30;99.90;;;;;;4142937;28;20279;-76
2022/09/28 04:20:13;;;;;;;1.20;0.90;;;18.30;99.90;;;;;;4141160;28;20229;-77
2022/09/28 04:22:15;;;;;;;1.95;1.10;;;18.20;99.90;;;;;;4139778;28;20304;-76
2022/09/28 04:24:19;;;;;;;2.35;1.23;;;18.20;99.90;;;;;;4137837;28;20213;-76
2022/09/28 04:26:22;;;;;;;1.70;1.20;;;18.20;99.90;;;;;;4143461;28;20280;-76
2022/09/28 04:30:47;;;;;;;1.63;1.10;;;18.20;99.90;;;;;;4141318;28;20221;-76
2022/09/28 04:32:49;;;;;;;1.27;1.02;;;18.20;99.90;;;;;;4141116;28;20221;-76
2022/09/28 04:34:51;;;;;;;1.73;0.88;;;18.20;99.90;;;;;;4142528;28;20212;-76
2022/09/28 04:36:54;;;;;;;1.40;0.95;;;18.20;99.90;;;;;;4143359;28;20225;-76
2022/09/28 04:38:56;;;;;;;1.45;0.93;;;18.20;99.90;;;;;;4143103;28;20221;-76
2022/09/28 04:40:58;;;;;;;1.67;1.17;;;18.20;99.90;;;;;;4139912;28;20221;-76
2022/09/28 04:43:00;;;;;;;1.60;0.90;;;18.20;99.90;;;;;;4143747;28;20225;-76
2022/09/28 04:45:05;;;;;;;2.55;1.00;;;18.20;99.90;;;;;;4138786;28;20233;-76
2022/09/28 04:47:07;;;;;;;3.15;1.10;;;18.20;99.90;;;;;;4141120;28;20272;-76
2022/09/28 04:49:10;;;;;;;1.15;0.90;;;18.20;99.90;;;;;;4129714;28;20268;-76
2022/09/28 04:51:12;;;;;;;1.33;1.00;;;18.20;99.90;;;;;;4142478;28;20282;-75
2022/09/28 04:53:14;;;;;;;1.30;1.00;;;18.20;99.90;;;;;;4141658;28;20230;-76
2022/09/28 04:55:17;;;;;;;2.65;0.93;;;18.20;99.90;;;;;;4142885;28;20259;-76
2022/09/28 04:57:19;;;;;;;2.72;0.93;;;18.00;99.90;;;;;;4143342;28;20267;-76
2022/09/28 04:59:21;;;;;;;1.50;1.00;;;18.10;99.90;;;;;;4142258;28;20225;-76
2022/09/28 05:01:25;;;;;;;2.05;1.02;;;18.10;99.90;;;;;;4142600;28;20256;-76
2022/09/28 05:03:27;;;;;;;1.75;1.00;;;18.00;99.90;;;;;;4139799;28;20214;-76
2022/09/28 05:05:30;;;;;;;1.55;0.90;;;18.00;99.90;;;;;;4141804;28;20263;-77
2022/09/28 05:07:32;;;;;;;2.10;1.27;;;18.00;99.90;;;;;;4132270;28;20252;-76
2022/09/28 05:09:34;;;;;;;1.75;1.00;;;18.10;99.90;;;;;;4135283;28;20523;-76
2022/09/28 05:11:37;;;;;;;1.58;1.00;;;18.00;99.90;;;;;;4143076;28;20240;-76
2022/09/28 05:13:41;;;;;;;1.60;1.00;;;18.10;99.90;;;;;;4142854;28;20217;-76
2022/09/28 05:15:43;;;;;;;1.20;0.90;;;18.10;99.90;;;;;;4140823;28;20707;-76
2022/09/28 05:17:47;;;;;;;2.45;1.20;;;18.00;99.90;;;;;;4141084;28;20275;-76
2022/09/28 05:19:49;;;;;;;3.05;1.10;;;18.00;99.90;;;;;;4143204;28;20263;-76
2022/09/28 05:21:52;;;;;;;1.40;0.90;;;18.00;99.90;;;;;;4141374;28;20653;-76
2022/09/28 05:23:55;;;;;;;1.75;1.10;;;18.10;99.90;;;;;;4137649;28;20260;-76
2022/09/28 05:26:01;;;;;;;1.77;0.88;;;18.00;99.90;;;;;;4138790;28;20217;-76
2022/09/28 05:28:03;;;;;;;1.80;1.02;;;18.00;99.90;;;;;;4141562;28;21008;-76
2022/09/28 05:30:06;;;;;;;2.15;1.20;;;18.00;99.90;;;;;;4141020;28;20608;-76
2022/09/28 05:32:09;;;;;;;1.13;0.82;;;18.00;99.90;;;;;;4141781;28;20279;-76
2022/09/28 05:34:12;;;;;;;2.42;1.05;;;18.00;99.90;;;;;;4142387;28;20217;-76
2022/09/28 05:36:15;;;;;;;1.63;1.02;;;18.00;99.90;;;;;;4140232;28;20275;-76
2022/09/28 05:38:17;;;;;;;1.70;1.05;;;18.00;99.90;;;;;;4141474;28;20264;-76
2022/09/28 05:40:19;;;;;;;1.15;0.88;;;18.00;99.90;;;;;;4143114;28;20221;-76
2022/09/28 05:42:21;;;;;;;1.70;0.90;;;18.10;99.90;;;;;;4142847;28;20271;-77
2022/09/28 05:44:24;;;;;;;2.08;0.93;;;18.00;99.90;;;;;;4139540;28;20224;-76
2022/09/28 05:46:27;;;;;;;2.58;1.08;;;18.00;99.90;;;;;;4143098;28;20622;-76
2022/09/28 05:48:29;;;;;;;1.33;0.90;;;18.00;99.90;;;;;;4140896;28;20225;-76
2022/09/28 05:50:33;;;;;;;1.80;0.95;;;18.00;99.90;;;;;;4140513;28;20654;-76
2022/09/28 05:52:35;;;;;;;1.83;1.10;;;18.00;99.90;;;;;;4139904;28;20244;-76
2022/09/28 05:54:37;;;;;;;1.60;1.00;;;17.90;99.90;;;;;;4143576;28;20229;-76
2022/09/28 05:56:40;;;;;;;2.28;1.10;;;17.90;99.90;;;;;;4143678;28;20217;-76
2022/09/28 05:58:42;;;;;;;1.23;0.85;;;17.90;99.90;;;;;;4145638;28;21021;-76
2022/09/28 06:00:44;;;;;;;2.65;1.10;;;17.90;99.90;;;;;;4143957;28;20392;-76
2022/09/28 06:02:55;;;;;;;2.92;1.30;;;18.00;99.90;;;;;;4141448;28;20225;-76
2022/09/28 06:04:58;;;;;;;1.90;0.90;;;18.00;99.90;;;;;;4146366;28;20221;-76
2022/09/28 06:07:01;;;;;;;1.20;1.10;;;18.00;99.90;;;;;;4136690;28;20230;-76
2022/09/28 06:09:04;;;;;;;1.80;0.95;;;18.00;99.90;;;;;;4144783;28;20221;-76
2022/09/28 06:11:06;;;;;;;1.13;0.90;;;17.90;99.90;;;;;;4144401;28;20299;-76
2022/09/28 06:13:10;;;;;;;1.50;1.00;;;18.00;99.90;;;;;;4144005;28;20217;-76
2022/09/28 06:15:13;;;;;;;1.77;0.98;;;18.00;99.90;;;;;;4144899;28;20264;-76
2022/09/28 06:17:15;;;;;;;1.80;0.80;;;18.00;99.90;;;;;;4141149;28;20616;-76
2022/09/28 06:19:18;;;;;;;1.80;1.00;;;18.00;99.90;;;;;;4143015;28;20271;-77
2022/09/28 06:21:20;;;;;;;1.40;1.00;;;18.00;99.90;;;;;;4145782;28;20210;-76
2022/09/28 06:23:24;;;;;;;2.72;1.02;;;18.00;99.90;;;;;;4146194;28;20229;-76
2022/09/28 06:25:27;;;;;;;1.70;1.08;;;18.00;99.90;;;;;;4143814;28;20225;-76
2022/09/28 06:27:29;;;;;;;1.35;0.90;;;18.00;99.90;;;;;;4143568;28;20890;-76
2022/09/28 06:29:31;;;;;;;1.38;0.98;;;17.90;99.90;;;;;;4143415;28;20217;-76
2022/09/28 06:31:34;;;;;;;1.65;1.10;;;17.90;99.90;;;;;;4141242;28;20291;-76
2022/09/28 06:33:37;;;;;;;1.33;0.95;;;17.90;99.90;;;;;;4146162;28;20276;-76
2022/09/28 06:35:39;;;;;;;1.50;0.90;;;17.90;99.90;;;;;;4144784;28;20271;-76
2022/09/28 06:37:44;;;;;;;1.83;1.00;;;18.00;99.90;;;;;;4143519;28;20213;-76
2022/09/28 06:39:48;;;;;;;1.17;0.98;;;18.00;99.90;;;;;;4143369;28;20312;-77
2022/09/28 06:41:50;;;;;;;2.95;1.10;;;18.00;99.90;;;;;;4136682;28;20319;-77
2022/09/28 06:43:52;;;;;;;1.92;1.00;;;18.10;99.90;;;;;;4145581;28;20212;-77
2022/09/28 06:45:54;;;;;;;2.63;0.90;;;18.10;99.90;;;;;;4141902;28;20316;-77
2022/09/28 06:47:58;;;;;;;4.80;1.30;;;18.20;99.90;;;;;;4139451;28;20209;-76
2022/09/28 06:50:01;;;;;;;1.40;0.80;;;18.30;99.90;;;;;;4145257;28;20217;-76
2022/09/28 06:52:03;;;;;;;1.33;1.05;;;18.40;99.90;;;;;;4131992;28;20278;-77
2022/09/28 06:54:05;;;;;;;1.42;1.05;;;18.50;99.90;;;;;;4145373;28;20284;-76
2022/09/28 06:56:10;;;;;;;1.85;1.02;;;18.50;99.90;;;;;;4137580;28;20218;-75
2022/09/28 06:58:15;;;;;;;1.60;1.10;;;18.70;99.90;;;;;;4143238;28;20263;-76
2022/09/28 07:00:18;;;;;;;2.00;1.10;;;18.70;99.90;;;;;;4141569;28;20607;-76
2022/09/28 07:02:21;;;;;;;2.22;1.40;;;18.70;99.90;;;;;;4142998;28;20271;-76
2022/09/28 07:04:24;;;;;;;3.28;1.52;;;18.80;99.90;;;;;;4140468;28;20209;-76
2022/09/28 07:06:27;;;;;;;3.17;1.30;;;18.80;99.90;;;;;;4139646;28;20737;-76
2022/09/28 07:08:30;;;;;;;2.80;1.83;;;18.80;99.90;;;;;;4141861;28;20275;-76
2022/09/28 07:10:32;;;;;;;2.42;1.40;;;18.80;99.90;;;;;;4133497;28;20213;-77
2022/09/28 07:12:38;;;;;;;2.78;1.35;;;18.90;99.90;;;;;;4141332;28;20320;-76
2022/09/28 07:14:40;;;;;;;3.50;1.27;;;18.90;99.90;;;;;;4137329;28;20229;-76
2022/09/28 07:16:43;;;;;;;4.22;1.70;;;18.90;99.90;;;;;;4140559;28;20616;-75
2022/09/28 07:18:45;;;;;;;2.50;1.35;;;18.90;99.90;;;;;;4136858;28;20221;-75
2022/09/28 07:20:47;;;;;;;2.33;1.40;;;18.90;99.90;;;;;;4137716;28;20275;-76
2022/09/28 07:22:53;;;;;;;2.05;1.30;;;18.90;99.90;;;;;;4144763;28;20331;-77
2022/09/28 07:24:56;;;;;;;2.85;1.60;;;18.90;99.90;;;;;;4141786;28;20733;-76
2022/09/28 07:26:58;;;;;;;3.05;1.60;;;19.00;99.90;;;;;;4141914;28;20597;-76
2022/09/28 07:29:02;;;;;;;1.90;1.10;;;19.00;99.90;;;;;;4138641;28;20260;-77
2022/09/28 07:31:04;;;;;;;2.85;1.25;;;19.10;99.90;;;;;;4142184;28;20263;-77
2022/09/28 07:33:11;;;;;;;2.85;1.25;;;19.10;99.90;;;;;;4139638;28;20236;-76
2022/09/28 07:35:15;;;;;;;2.38;1.38;;;19.20;99.90;;;;;;4139083;28;20221;-76
2022/09/28 07:37:18;;;;;;;2.65;1.23;;;19.20;99.90;;;;;;4142205;28;20275;-76
2022/09/28 07:39:21;;;;;;;2.35;1.45;;;19.30;99.90;;;;;;4135048;28;20222;-75
2022/09/28 07:41:31;;;;;;;2.80;1.25;;;19.20;99.90;;;;;;4141879;28;20214;-76
2022/09/28 07:43:34;;;;;;;2.30;1.52;;;19.20;99.90;;;;;;4136216;28;20323;-76
2022/09/28 07:45:37;;;;;;;1.67;1.10;;;19.30;99.90;;;;;;4123640;28;20214;-76
2022/09/28 07:47:40;;;;;;;6.05;1.63;;;19.30;99.90;;;;;;4144758;28;20632;-77
2022/09/28 07:49:43;;;;;;;4.97;1.33;;;19.30;99.90;;;;;;4144924;28;20225;-77
2022/09/28 07:51:45;;;;;;;6.22;1.77;;;19.30;99.90;;;;;;4142087;28;20260;-78
2022/09/28 07:53:47;;;;;;;2.53;1.20;;;19.30;99.90;;;;;;4137305;28;20355;-77
2022/09/28 07:55:51;;;;;;;2.85;1.20;;;19.30;99.90;;;;;;4131983;28;20212;-77
2022/09/28 07:57:55;;;;;;;4.05;1.38;;;19.30;99.90;;;;;;4138723;28;20213;-76
2022/09/28 07:59:57;;;;;;;2.42;0.95;;;19.30;99.90;;;;;;4135733;28;20221;-75
2022/09/28 08:02:01;;;;;;;2.53;1.23;;;19.30;99.90;;;;;;4140177;28;20268;-75
2022/09/28 08:04:03;;;;;;;2.50;1.50;;;19.40;99.90;;;;;;4139916;28;20274;-75
2022/09/28 08:06:08;;;;;;;2.63;1.40;;;19.40;99.90;;;;;;4141277;28;20263;-75
2022/09/28 08:08:11;;;;;;;2.08;1.30;;;19.40;99.90;;;;;;4137046;28;20631;-75
2022/09/28 08:10:13;;;;;;;4.18;1.45;;;19.50;99.90;;;;;;4137546;28;20217;-75
2022/09/28 08:12:17;;;;;;;1.70;1.27;;;19.50;99.90;;;;;;4133546;28;20267;-75
2022/09/28 08:14:19;;;;;;;5.28;1.80;;;19.60;99.90;;;;;;4132628;28;20311;-74
2022/09/28 08:16:21;;;;;;;3.58;1.50;;;19.60;99.90;;;;;;4132768;28;20225;-74
2022/09/28 08:18:25;;;;;;;2.83;1.60;;;19.70;99.90;;;;;;4138192;28;20248;-75
2022/09/28 08:22:56;;;;;;;3.30;1.50;;;19.60;99.90;;;;;;4093558;28;20221;-75
2022/09/28 08:24:58;;;;;;;5.25;1.40;;;19.70;99.90;;;;;;4138219;28;20268;-75
2022/09/28 08:27:00;;;;;;;2.85;1.60;;;19.80;99.90;;;;;;4136626;28;20267;-73
2022/09/28 08:29:03;;;;;;;3.45;1.38;;;19.80;99.90;;;;;;4139727;28;20271;-75
2022/09/28 08:31:06;;;;;;;1.67;1.05;;;19.80;99.90;;;;;;4138464;28;20611;-75
2022/09/28 08:33:11;;;;;;;3.22;1.38;;;19.80;99.90;;;;;;4140176;28;20240;-75
2022/09/28 08:35:15;;;;;;;2.95;1.50;;;19.80;99.90;;;;;;4137006;28;20275;-75
2022/09/28 08:37:17;;;;;;;5.18;1.77;;;19.80;99.90;;;;;;4139307;28;20256;-74
2022/09/28 08:39:19;;;;;;;3.17;1.50;;;19.80;99.90;;;;;;4140948;28;20260;-74
2022/09/28 08:41:35;;;;;;;5.15;1.48;;;19.90;99.90;;;;;;4134717;28;20237;-76
2022/09/28 08:43:49;;;;;;;2.85;1.20;;;19.90;99.90;;;;;;4133767;28;20712;-75
2022/09/28 08:45:53;;;;;;;2.58;1.50;;;19.90;99.90;;;;;;4116072;28;20217;-76
2022/09/28 08:50:29;;;;;;;2.28;1.30;;;19.90;99.90;;;;;;4127405;28;20749;-76
2022/09/28 08:52:37;;;;;;;4.13;1.38;;;20.00;99.90;;;;;;4136019;28;20283;-75
2022/09/28 08:54:47;;;;;;;3.75;1.50;;;19.90;99.90;;;;;;4139696;28;20213;-77
2022/09/28 08:56:54;;;;;;;1.58;1.20;;;19.90;99.90;;;;;;4137417;28;20217;-76
2022/09/28 08:59:01;;;;;;;3.13;1.40;;;19.90;99.90;;;;;;4142195;28;20244;-76
2022/09/28 09:01:07;;;;;;;2.67;1.65;;;19.90;99.90;;;;;;4135345;28;20593;-74
2022/09/28 09:03:12;;;;;;;5.28;1.40;;;19.90;99.90;;;;;;4139481;28;20323;-73
2022/09/28 09:05:18;;;;;;;3.15;1.60;;;20.10;99.90;;;;;;4132142;28;20296;-76
2022/09/28 09:07:46;;;;;;;4.80;1.40;;;20.00;99.90;;;;;;4133161;28;20634;-75
2022/09/28 09:10:00;;;;;;;2.42;1.45;;;20.10;99.90;;;;;;4135048;28;20374;-75
2022/09/28 09:12:08;;;;;;;3.17;1.20;;;20.10;99.90;;;;;;4131420;28;22705;-74
2022/09/28 09:14:30;;;;;;;2.60;1.50;;;20.10;99.90;;;;;;4136001;28;20393;-75
2022/09/28 09:16:43;;;;;;;3.05;1.40;;;20.10;99.90;;;;;;4140041;28;20213;-75
2022/09/28 09:18:51;;;;;;;2.83;1.50;;;20.10;99.90;;;;;;4137387;28;20220;-75
2022/09/28 09:20:57;;;;;;;3.47;1.35;;;20.10;99.90;;;;;;4133646;28;20274;-75
2022/09/28 09:23:10;;;;;;;3.88;1.50;;;20.10;99.90;;;;;;4138997;28;20627;-76
2022/09/28 09:25:18;;;;;;;3.47;1.30;;;20.10;99.90;;;;;;4137890;28;20267;-76
2022/09/28 09:27:39;;;;;;;2.40;1.38;;;20.10;99.90;;;;;;4140576;28;20212;-76
2022/09/28 09:29:54;;;;;;;2.10;1.30;;;20.10;99.90;;;;;;4129995;28;20275;-75
2022/09/28 09:32:27;;;;;;;3.30;1.48;;;20.00;99.90;;;;;;4134164;28;20546;-76
2022/09/28 09:34:48;;;;;;;2.58;1.80;;;20.20;99.90;;;;;;4139295;28;20217;-77
2022/09/28 09:37:15;;;;;;;2.67;1.40;;;20.30;99.90;;;;;;4139763;28;20217;-77
2022/09/28 09:39:31;;;;;;;3.50;1.50;;;20.20;99.90;;;;;;4135746;28;20225;-76
2022/09/28 09:41:48;;;;;;;3.95;1.40;;;20.30;99.90;;;;;;4135608;28;20271;-76
2022/09/28 09:44:25;;;;;;;2.70;1.35;;;20.40;99.90;;;;;;4132032;28;20210;-76
2022/09/28 09:46:35;;;;;;;3.70;1.45;;;20.30;99.90;;;;;;4129295;28;20270;-75
2022/09/28 09:48:47;;;;;;;2.25;1.13;;;20.30;99.90;;;;;;4136111;28;20212;-75
2022/09/28 09:50:53;;;;;;;4.30;1.33;;;20.30;99.90;;;;;;4133400;28;20303;-76
2022/09/28 09:53:02;;;;;;;2.83;1.15;;;20.40;99.90;;;;;;4132537;28;20218;-76
2022/09/28 09:55:16;;;;;;;2.45;1.38;;;20.30;99.90;;;;;;4135872;28;20558;-75
2022/09/28 09:57:24;;;;;;;2.50;1.42;;;20.30;99.90;;;;;;4139919;28;20264;-75
2022/09/28 09:59:32;;;;;;;3.38;1.50;;;20.30;99.90;;;;;;4132836;28;20216;-76
2022/09/28 10:01:37;;;;;;;2.10;1.50;;;20.30;99.90;;;;;;4138243;28;20216;-75
2022/09/28 10:03:43;;;;;;;3.15;1.48;;;20.40;99.90;;;;;;4137251;28;20263;-75
2022/09/28 10:05:51;;;;;;;2.85;1.40;;;20.50;99.90;;;;;;4133816;28;20267;-76
2022/09/28 10:07:58;;;;;;;2.13;1.20;;;20.50;99.90;;;;;;4137538;28;20216;-76
2022/09/28 10:10:02;;;;;;;2.08;1.25;;;20.60;99.90;;;;;;4136040;28;21247;-76
2022/09/28 10:12:08;;;;;;;3.50;1.40;;;20.50;99.90;;;;;;4132940;28;20217;-75
2022/09/28 10:14:15;;;;;;;1.83;1.33;;;20.40;99.90;;;;;;4136168;28;20260;-77
2022/09/28 10:16:19;;;;;;;1.85;1.50;;;20.50;99.90;;;;;;4134086;28;20729;-76
2022/09/28 10:18:21;;;;;;;3.30;1.25;;;20.50;99.90;;;;;;4140296;28;20225;-76
2022/09/28 10:20:24;;;;;;;2.30;1.20;;;20.50;99.90;;;;;;4137407;28;20222;-76
2022/09/28 10:22:28;;;;;;;3.53;1.40;;;20.60;99.90;;;;;;4140019;28;20248;-78
2022/09/28 10:24:32;;;;;;;3.15;1.48;;;20.50;99.90;;;;;;4137180;28;20220;-76
2022/09/28 10:26:38;;;;;;;1.42;1.05;;;20.60;99.90;;;;;;4140333;28;20267;-77
2022/09/28 10:28:48;;;;;;;2.67;1.55;;;20.50;99.90;;;;;;4143033;28;20221;-77
2022/09/28 10:30:50;;;;;;;2.63;1.10;;;20.50;99.90;;;;;;4136498;28;20217;-78
2022/09/28 10:32:58;;;;;;;2.10;1.30;;;20.50;99.90;;;;;;4137015;28;20678;-77
2022/09/28 10:35:14;;;;;;;4.03;1.30;;;20.60;99.90;;;;;;4133457;28;20241;-78
2022/09/28 10:37:18;;;;;;;3.40;1.38;;;20.60;99.90;;;;;;4142329;28;20209;-76
2022/09/28 10:39:29;;;;;;;2.00;1.10;;;20.50;99.90;;;;;;4140220;28;20331;-77
2022/09/28 10:41:32;;;;;;;2.95;1.35;;;20.40;99.90;;;;;;4139798;28;20301;-76
2022/09/28 10:43:37;;;;;;;5.05;1.40;;;20.40;99.90;;;;;;4144677;28;20617;-76
2022/09/28 10:45:41;;;;;;;1.90;1.30;;;20.40;99.90;;;;;;4140587;28;20224;-76
2022/09/28 10:47:44;;;;;;;2.03;1.10;;;20.20;99.90;;;;;;4142694;28;20201;-76
2022/09/28 10:49:49;;;;;;;2.53;1.25;;;20.10;99.90;;;;;;4142940;28;20213;-78
2022/09/28 10:51:53;;;;;;;3.22;1.10;;;20.20;99.90;;;;;;4140439;28;20233;-77
2022/09/28 10:54:00;;;;;;;5.25;1.00;;;20.10;99.90;;;;;;4144884;28;20233;-77
2022/09/28 10:56:06;;;;;;;3.38;1.10;;;20.10;99.90;;;;;;4144080;28;20366;-77
2022/09/28 10:58:25;;;;;;;2.90;1.20;;;20.10;99.90;;;;;;4145857;28;20567;-77
2022/09/28 11:00:34;;;;;;;2.67;1.20;;;20.10;99.90;;;;;;4143881;28;20224;-78
2022/09/28 11:02:40;;;;;;;2.05;1.20;;;20.00;99.90;;;;;;4143780;28;20213;-78